Time;durP1;ratioP1;P1;durP2;ratioP2;P2;SDS_P1;SDS_P2;PMS_P1;PMS_P2;Temp;Humidity;BMP_temperature;BMP_pressure;BME280_temperature;BME280_humidity;BME280_pressure;Samples;Min_cycle;Max_cycle;Signal;HPM_P1;HPM_P2
2021/09/04 00:01:13;;;;;;;11.73;7.07;;;;;;;17.48;52.00;95307.34;5051283;28;20456;-71
2021/09/04 00:03:40;;;;;;;9.87;6.77;;;;;;;17.47;51.93;95316.34;5051717;28;20972;-73
2021/09/04 00:06:07;;;;;;;8.20;6.33;;;;;;;17.39;51.60;95314.34;5050885;28;20944;-72
2021/09/04 00:08:34;;;;;;;11.47;6.63;;;;;;;17.35;51.83;95332.69;5051350;28;20538;-71
2021/09/04 00:11:02;;;;;;;10.23;6.60;;;;;;;17.33;52.14;95320.78;5050875;28;20439;-72
2021/09/04 00:13:30;;;;;;;10.90;5.77;;;;;;;17.22;52.29;95334.16;5051292;28;20435;-70
2021/09/04 00:15:57;;;;;;;9.53;6.33;;;;;;;17.16;51.58;95343.25;5050687;28;20439;-73
2021/09/04 00:18:29;;;;;;;9.10;6.07;;;;;;;17.10;52.10;95352.34;5051261;28;20850;-70
2021/09/04 00:20:56;;;;;;;12.27;6.50;;;;;;;17.20;52.18;95332.88;5050675;28;20450;-71
2021/09/04 00:23:23;;;;;;;8.53;6.43;;;;;;;17.27;51.59;95337.81;5036814;28;20431;-71
2021/09/04 00:25:50;;;;;;;9.00;6.47;;;;;;;17.02;52.56;95320.41;5050486;28;20976;-72
2021/09/04 00:28:17;;;;;;;13.07;6.83;;;;;;;17.10;52.47;95335.66;5035101;28;20471;-72
2021/09/04 00:30:44;;;;;;;8.00;6.83;;;;;;;17.01;52.45;95354.03;5038578;28;20443;-71
2021/09/04 00:33:12;;;;;;;10.87;6.50;;;;;;;17.16;52.60;95347.75;5050973;28;20919;-70
2021/09/04 00:35:39;;;;;;;10.87;6.97;;;;;;;17.06;51.71;95338.09;5051186;28;20537;-70
2021/09/04 00:38:06;;;;;;;9.87;6.30;;;;;;;17.05;52.46;95354.25;5051455;28;20462;-70
2021/09/04 00:40:33;;;;;;;8.50;6.57;;;;;;;17.11;52.69;95351.28;5049902;28;20439;-71
2021/09/04 00:42:59;;;;;;;8.23;7.23;;;;;;;17.19;52.49;95347.97;5050654;28;20827;-72
2021/09/04 00:45:26;;;;;;;10.37;7.23;;;;;;;17.14;52.44;95352.56;5036127;28;20505;-71
2021/09/04 00:48:00;;;;;;;12.30;7.10;;;;;;;17.12;52.04;95347.53;5041768;28;20502;-71
2021/09/04 00:50:29;;;;;;;14.90;7.10;;;;;;;17.02;52.39;95337.06;5031727;28;20452;-72
2021/09/04 00:52:57;;;;;;;10.53;7.03;;;;;;;16.93;53.26;95324.78;5043722;28;20439;-72
2021/09/04 00:55:24;;;;;;;9.33;6.53;;;;;;;16.99;52.74;95329.72;5043579;28;20903;-71
2021/09/04 00:57:52;;;;;;;11.23;6.63;;;;;;;16.60;52.19;95307.97;5030488;28;20432;-72
2021/09/04 01:00:19;;;;;;;10.40;6.77;;;;;;;16.75;52.97;95325.53;5042322;28;20470;-72
2021/09/04 01:02:46;;;;;;;10.33;6.53;;;;;;;16.75;52.87;95331.59;5049971;28;20526;-71
2021/09/04 01:05:14;;;;;;;9.50;6.77;;;;;;;16.90;52.48;95318.19;5050404;28;20965;-71
2021/09/04 01:07:43;;;;;;;9.63;7.03;;;;;;;16.82;53.10;95318.78;5046744;28;20458;-72
2021/09/04 01:10:13;;;;;;;8.37;6.07;;;;;;;16.86;53.04;95311.88;5030321;28;20448;-73
2021/09/04 01:12:40;;;;;;;8.23;6.70;;;;;;;16.88;53.12;95304.44;5044087;28;20480;-70
2021/09/04 01:15:09;;;;;;;8.60;6.67;;;;;;;16.77;53.71;95307.50;5029815;28;20463;-71
2021/09/04 01:17:36;;;;;;;10.07;6.10;;;;;;;16.77;53.59;95305.63;5043761;28;20490;-71
2021/09/04 01:20:05;;;;;;;8.40;6.00;;;;;;;16.73;53.47;95307.25;5049651;28;20979;-70
2021/09/04 01:22:32;;;;;;;8.13;6.33;;;;;;;16.68;53.78;95302.03;5049732;28;20462;-71
2021/09/04 01:25:06;;;;;;;7.80;6.30;;;;;;;16.58;53.20;95299.53;5049947;28;20573;-71
2021/09/04 01:27:37;;;;;;;7.83;6.37;;;;;;;16.28;54.33;95297.19;5040132;28;20539;-71
2021/09/04 01:30:06;;;;;;;10.07;6.57;;;;;;;15.85;55.36;95306.88;5045788;28;20450;-71
2021/09/04 01:32:33;;;;;;;10.60;6.77;;;;;;;15.76;55.71;95294.50;5049765;28;20431;-72
2021/09/04 01:35:05;;;;;;;7.53;6.03;;;;;;;15.85;55.19;95290.22;5049403;28;21019;-71
2021/09/04 01:37:34;;;;;;;8.90;6.97;;;;;;;16.03;54.76;95292.16;5041863;28;20444;-72
2021/09/04 01:40:01;;;;;;;6.97;5.87;;;;;;;16.14;54.36;95288.34;5043833;28;20478;-71
2021/09/04 01:42:28;;;;;;;11.50;6.00;;;;;;;16.28;53.81;95289.25;5049394;28;20481;-72
2021/09/04 01:44:55;;;;;;;8.37;6.40;;;;;;;16.22;54.08;95290.38;5050038;28;20856;-72
2021/09/04 01:47:25;;;;;;;9.13;6.57;;;;;;;16.39;53.78;95290.72;5048978;28;20975;-72
2021/09/04 01:49:53;;;;;;;7.60;6.03;;;;;;;16.33;54.06;95286.53;5039622;28;20513;-72
2021/09/04 01:52:21;;;;;;;9.20;6.40;;;;;;;16.27;54.95;95286.88;5045751;28;20454;-71
2021/09/04 01:54:50;;;;;;;12.20;6.23;;;;;;;16.29;54.65;95290.03;5041228;28;21031;-71
2021/09/04 01:57:19;;;;;;;10.57;6.40;;;;;;;16.02;55.24;95280.00;5030372;28;20431;-70
2021/09/04 01:59:47;;;;;;;8.70;6.40;;;;;;;16.06;55.27;95283.66;5049676;28;20446;-71
2021/09/04 02:02:14;;;;;;;11.93;6.80;;;;;;;16.10;54.93;95297.88;5049126;28;20435;-70
2021/09/04 02:04:41;;;;;;;10.30;6.30;;;;;;;16.04;55.54;95283.13;5035811;28;21444;-70
2021/09/04 02:07:08;;;;;;;8.80;5.97;;;;;;;16.15;55.35;95295.19;5049457;28;20984;-71
2021/09/04 02:09:35;;;;;;;7.53;5.70;;;;;;;16.09;55.37;95283.88;5049514;28;20439;-70
2021/09/04 02:12:02;;;;;;;7.87;6.23;;;;;;;16.16;54.74;95286.22;5039095;28;20471;-70
2021/09/04 02:14:29;;;;;;;8.90;6.03;;;;;;;16.12;55.18;95285.19;5043474;28;20992;-71
2021/09/04 02:16:56;;;;;;;8.53;5.77;;;;;;;16.16;55.40;95276.44;5032030;28;20534;-72
2021/09/04 02:19:23;;;;;;;8.17;5.43;;;;;;;15.90;55.15;95282.22;5042340;28;20446;-72
2021/09/04 02:21:51;;;;;;;9.93;6.23;;;;;;;15.92;55.15;95272.16;5049417;28;20882;-70
2021/09/04 02:24:20;;;;;;;13.87;6.07;;;;;;;15.95;54.81;95279.53;5039215;28;20447;-70
2021/09/04 02:26:47;;;;;;;10.13;5.83;;;;;;;15.86;55.71;95268.00;5049824;28;20445;-69
2021/09/04 02:29:14;;;;;;;9.73;6.00;;;;;;;15.92;55.73;95275.59;5054117;28;20813;-73
2021/09/04 02:31:42;;;;;;;10.97;5.80;;;;;;;15.88;55.73;95284.34;5052516;28;20454;-71
2021/09/04 02:34:11;;;;;;;8.10;6.40;;;;;;;15.93;55.39;95277.16;5043457;28;20431;-71
2021/09/04 02:36:40;;;;;;;9.50;6.30;;;;;;;15.94;55.07;95272.69;5053092;28;20441;-71
2021/09/04 02:39:08;;;;;;;11.27;6.80;;;;;;;15.83;55.12;95260.63;5041720;28;20423;-70
2021/09/04 02:41:35;;;;;;;9.30;7.03;;;;;;;15.74;55.16;95262.31;5040712;28;20467;-72
2021/09/04 02:44:02;;;;;;;8.30;5.90;;;;;;;15.62;55.68;95252.09;5053352;28;20493;-72
2021/09/04 02:46:31;;;;;;;9.80;6.20;;;;;;;15.76;54.84;95270.75;5052878;28;20517;-71
2021/09/04 02:48:59;;;;;;;7.50;5.80;;;;;;;15.68;55.48;95273.97;5036003;28;20484;-73
2021/09/04 02:51:26;;;;;;;7.10;6.37;;;;;;;15.69;55.77;95267.63;5041749;28;20753;-70
2021/09/04 02:53:54;;;;;;;8.77;5.97;;;;;;;15.69;55.55;95265.00;5051850;28;20435;-71
2021/09/04 02:56:21;;;;;;;9.87;6.53;;;;;;;15.67;55.73;95264.47;5040246;28;20980;-71
2021/09/04 02:58:48;;;;;;;8.77;6.63;;;;;;;15.32;56.51;95254.97;5053088;28;20751;-70
2021/09/04 03:01:16;;;;;;;8.00;6.20;;;;;;;15.34;56.72;95252.03;5052507;28;20497;-72
2021/09/04 03:03:43;;;;;;;9.47;6.30;;;;;;;15.48;55.86;95253.00;5052438;28;20442;-71
2021/09/04 03:06:10;;;;;;;8.73;6.40;;;;;;;15.64;55.91;95262.38;5051525;28;20956;-72
2021/09/04 03:08:38;;;;;;;7.50;6.47;;;;;;;15.54;56.24;95267.75;5052478;28;20474;-72
2021/09/04 03:11:05;;;;;;;9.90;6.50;;;;;;;15.43;55.89;95250.41;5051903;28;20439;-70
2021/09/04 03:13:33;;;;;;;8.47;6.33;;;;;;;15.56;55.74;95257.69;5053051;28;20821;-72
2021/09/04 03:16:00;;;;;;;11.07;6.70;;;;;;;15.54;55.63;95251.91;5052050;28;20478;-71
2021/09/04 03:18:29;;;;;;;11.90;6.63;;;;;;;15.34;56.63;95254.69;5047505;28;20443;-70
2021/09/04 03:20:56;;;;;;;10.03;6.60;;;;;;;15.47;56.65;95249.59;5032403;28;20490;-71
2021/09/04 03:23:24;;;;;;;8.33;6.67;;;;;;;15.37;56.55;95254.13;5046193;28;20442;-71
2021/09/04 03:25:51;;;;;;;7.40;6.40;;;;;;;15.50;56.39;95266.72;5041997;28;20435;-71
2021/09/04 03:28:19;;;;;;;8.50;6.30;;;;;;;15.41;57.11;95258.63;5052419;28;20439;-71
2021/09/04 03:30:47;;;;;;;9.80;6.97;;;;;;;15.46;57.12;95258.56;5043921;28;20443;-69
2021/09/04 03:33:14;;;;;;;8.60;6.97;;;;;;;15.39;56.82;95265.19;5046245;28;20439;-71
2021/09/04 03:35:41;;;;;;;9.23;7.10;;;;;;;15.42;56.99;95265.47;5045111;28;20525;-72
2021/09/04 03:38:09;;;;;;;9.17;7.23;;;;;;;15.35;56.69;95264.16;5044673;28;20513;-72
2021/09/04 03:40:36;;;;;;;10.80;6.90;;;;;;;15.44;56.87;95275.78;5037240;28;20447;-72
2021/09/04 03:43:04;;;;;;;10.97;7.13;;;;;;;15.27;56.90;95275.34;5040731;28;20472;-71
2021/09/04 03:45:32;;;;;;;12.03;7.03;;;;;;;15.30;57.13;95256.28;5035149;28;21182;-71
2021/09/04 03:48:00;;;;;;;12.03;7.47;;;;;;;14.89;58.04;95246.00;5051867;28;20439;-72
2021/09/04 03:50:29;;;;;;;8.37;6.97;;;;;;;15.24;57.21;95285.38;5050912;28;20449;-71
2021/09/04 03:52:56;;;;;;;9.23;7.50;;;;;;;15.20;58.06;95289.63;5044514;28;20468;-71
2021/09/04 03:55:24;;;;;;;10.03;6.93;;;;;;;15.27;57.11;95274.25;5044921;28;20509;-70
2021/09/04 03:57:51;;;;;;;11.03;7.13;;;;;;;15.36;56.82;95278.97;5037710;28;20471;-70
2021/09/04 04:00:19;;;;;;;12.63;7.90;;;;;;;15.34;57.41;95268.69;5039915;28;20482;-72
2021/09/04 04:02:46;;;;;;;10.40;7.80;;;;;;;15.39;57.23;95270.47;5035094;28;20428;-72
2021/09/04 04:05:14;;;;;;;11.10;8.40;;;;;;;15.44;57.03;95267.84;5051383;28;20453;-70
2021/09/04 04:07:42;;;;;;;12.73;8.53;;;;;;;15.27;57.39;95262.13;5051147;28;20877;-72
2021/09/04 04:10:10;;;;;;;11.83;9.50;;;;;;;15.37;57.54;95262.03;5051244;28;20443;-72
2021/09/04 04:12:37;;;;;;;11.63;8.37;;;;;;;15.39;57.92;95257.28;5050775;28;20439;-72
2021/09/04 04:15:05;;;;;;;18.90;11.83;;;;;;;15.31;57.50;95260.53;5051562;28;20840;-71
2021/09/04 04:17:34;;;;;;;14.40;9.97;;;;;;;15.39;57.00;95267.84;5039279;28;20482;-71
2021/09/04 04:20:01;;;;;;;16.17;9.80;;;;;;;15.32;57.20;95270.00;5034501;28;21055;-70
2021/09/04 04:22:28;;;;;;;11.30;8.77;;;;;;;15.39;57.53;95270.47;5050840;28;20445;-70
2021/09/04 04:24:55;;;;;;;12.33;9.30;;;;;;;15.39;57.41;95260.72;5051294;28;20439;-72
2021/09/04 04:27:23;;;;;;;11.60;8.50;;;;;;;15.46;57.19;95270.97;5042598;28;20440;-71
2021/09/04 04:29:50;;;;;;;15.10;8.90;;;;;;;15.36;57.29;95276.31;5045195;28;20446;-70
2021/09/04 04:32:17;;;;;;;12.30;8.93;;;;;;;15.37;57.30;95285.81;5050996;28;20446;-72
2021/09/04 04:34:45;;;;;;;15.30;9.25;;;;;;;15.42;57.41;95285.81;5050872;28;20534;-72
2021/09/04 04:37:14;;;;;;;16.57;9.70;;;;;;;15.49;58.25;95291.56;5050336;28;20497;-73
2021/09/04 04:39:42;;;;;;;14.03;9.13;;;;;;;15.40;57.81;95282.63;5039072;28;20451;-71
2021/09/04 04:42:10;;;;;;;19.17;9.90;;;;;;;15.36;58.07;95303.53;5048072;28;20494;-71
2021/09/04 04:44:40;;;;;;;18.30;9.73;;;;;;;15.57;58.18;95298.88;5050778;28;20449;-72
2021/09/04 04:47:08;;;;;;;12.97;9.17;;;;;;;15.82;56.80;95296.06;5050233;28;20882;-71
2021/09/04 04:49:36;;;;;;;15.23;9.50;;;;;;;15.72;57.12;95296.94;5050147;28;20443;-71
2021/09/04 04:52:03;;;;;;;14.73;9.57;;;;;;;15.58;58.09;95284.63;5036513;28;20452;-71
2021/09/04 04:54:31;;;;;;;16.40;11.20;;;;;;;15.61;58.76;95294.63;5038760;28;20441;-70
2021/09/04 04:56:57;;;;;;;16.03;10.60;;;;;;;15.40;59.26;95272.06;5051651;28;20857;-70
2021/09/04 04:59:26;;;;;;;18.63;11.80;;;;;;;15.58;58.88;95298.63;5046871;28;20436;-70
2021/09/04 05:01:53;;;;;;;16.63;11.70;;;;;;;15.40;59.35;95299.25;5042428;28;20446;-71
2021/09/04 05:04:21;;;;;;;14.80;11.13;;;;;;;15.47;59.27;95312.19;5047468;28;20527;-72
2021/09/04 05:06:49;;;;;;;19.17;11.20;;;;;;;15.46;59.71;95305.31;5039784;28;20458;-71
2021/09/04 05:09:16;;;;;;;17.53;11.03;;;;;;;15.48;59.75;95306.63;5050118;28;20861;-72
2021/09/04 05:11:45;;;;;;;15.80;10.97;;;;;;;15.47;59.89;95302.41;5049742;28;20523;-71
2021/09/04 05:14:13;;;;;;;14.90;11.53;;;;;;;15.45;59.52;95306.38;5050151;28;20435;-71
2021/09/04 05:16:41;;;;;;;18.60;11.47;;;;;;;15.39;59.72;95308.25;5043057;28;20476;-70
2021/09/04 05:19:09;;;;;;;15.20;10.27;;;;;;;15.19;59.31;95282.78;5030044;28;20490;-72
2021/09/04 05:21:36;;;;;;;17.20;10.70;;;;;;;15.37;59.38;95299.81;5032368;28;20451;-70
2021/09/04 05:24:04;;;;;;;18.37;11.23;;;;;;;15.45;59.69;95301.09;5050468;28;20484;-71
2021/09/04 05:26:31;;;;;;;16.77;10.37;;;;;;;15.46;59.62;95302.66;5035524;28;20558;-72
2021/09/04 05:29:00;;;;;;;11.63;10.33;;;;;;;15.71;58.04;95294.56;5050016;28;20460;-72
2021/09/04 05:31:27;;;;;;;12.73;9.90;;;;;;;15.83;58.03;95302.91;5035705;28;20438;-72
2021/09/04 05:33:54;;;;;;;13.73;10.23;;;;;;;15.69;58.28;95296.69;5029614;28;20479;-71
2021/09/04 05:36:21;;;;;;;18.67;10.23;;;;;;;15.71;58.84;95310.41;5041560;28;20474;-72
2021/09/04 05:38:52;;;;;;;14.90;9.83;;;;;;;15.67;59.44;95304.91;5050046;28;20438;-71
2021/09/04 05:41:19;;;;;;;16.03;10.13;;;;;;;15.53;60.01;95313.72;5049601;28;20439;-71
2021/09/04 05:43:46;;;;;;;17.17;11.03;;;;;;;15.48;59.36;95311.91;5049685;28;20450;-72
2021/09/04 05:46:13;;;;;;;16.73;11.30;;;;;;;15.81;59.13;95305.03;5040043;28;20444;-69
2021/09/04 05:48:40;;;;;;;12.07;10.23;;;;;;;15.60;60.22;95298.34;5045474;28;20458;-70
2021/09/04 05:51:08;;;;;;;19.80;10.50;;;;;;;15.54;60.04;95267.75;5036035;28;20441;-72
2021/09/04 05:53:38;;;;;;;14.67;10.87;;;;;;;15.85;59.34;95308.72;5049608;28;20980;-72
2021/09/04 05:56:05;;;;;;;13.77;10.30;;;;;;;15.99;58.67;95291.13;5034812;28;20486;-71
2021/09/04 05:58:32;;;;;;;16.77;11.37;;;;;;;16.12;58.67;95311.63;5049220;28;20435;-71
2021/09/04 06:01:00;;;;;;;14.60;10.63;;;;;;;16.03;58.91;95313.28;5050679;28;20457;-71
2021/09/04 06:03:28;;;;;;;13.77;10.60;;;;;;;16.09;58.76;95309.53;5053340;28;20526;-71
2021/09/04 06:05:59;;;;;;;14.70;10.67;;;;;;;16.07;59.21;95309.03;5050718;28;20945;-70
2021/09/04 06:08:26;;;;;;;16.47;10.83;;;;;;;16.02;59.60;95296.63;5042433;28;20431;-72
2021/09/04 06:10:53;;;;;;;14.77;10.23;;;;;;;16.41;58.10;95287.78;5053117;28;20817;-71
2021/09/04 06:13:20;;;;;;;14.67;10.57;;;;;;;16.57;56.44;95297.94;5046925;28;20455;-72
2021/09/04 06:15:47;;;;;;;15.00;10.63;;;;;;;16.36;55.65;95296.56;5032681;28;20467;-70
2021/09/04 06:18:15;;;;;;;13.47;10.90;;;;;;;16.28;57.06;95299.81;5035850;28;20442;-72
2021/09/04 06:20:42;;;;;;;13.43;10.10;;;;;;;16.23;57.24;95313.09;5052803;28;20442;-72
2021/09/04 06:23:10;;;;;;;12.87;10.83;;;;;;;16.14;57.44;95304.22;5037814;28;20436;-72
2021/09/04 06:25:38;;;;;;;14.63;11.13;;;;;;;16.48;57.66;95307.56;5052825;28;20442;-72
2021/09/04 06:28:05;;;;;;;13.67;10.20;;;;;;;16.55;57.69;95309.88;5053017;28;20429;-73
2021/09/04 06:30:32;;;;;;;13.73;10.40;;;;;;;16.53;57.69;95312.78;5052872;28;20958;-73
2021/09/04 06:32:59;;;;;;;13.37;10.00;;;;;;;16.64;58.46;95311.59;5040957;28;20967;-70
2021/09/04 06:35:26;;;;;;;14.80;9.90;;;;;;;16.94;56.59;95305.97;5051044;28;20435;-72
2021/09/04 06:37:53;;;;;;;14.10;9.60;;;;;;;17.05;55.49;95296.81;5053103;28;20431;-71
2021/09/04 06:43:06;;;;;;;12.83;8.90;;;;;;;16.93;56.55;95296.41;5033064;28;20479;-73
2021/09/04 06:45:33;;;;;;;19.27;9.27;;;;;;;16.93;54.42;95291.13;5036066;28;20824;-72
2021/09/04 06:48:01;;;;;;;11.87;9.30;;;;;;;17.07;53.41;95302.59;5053123;28;20789;-71
2021/09/04 06:50:28;;;;;;;13.23;9.33;;;;;;;16.98;56.86;95304.31;5052091;28;20446;-71
2021/09/04 06:52:55;;;;;;;13.27;8.83;;;;;;;17.16;56.36;95306.19;5045952;28;21049;-72
2021/09/04 06:55:23;;;;;;;14.83;8.60;;;;;;;17.27;54.83;95290.13;5045714;28;20461;-71
2021/09/04 06:57:50;;;;;;;11.70;7.80;;;;;;;17.23;54.78;95300.53;5047117;28;20454;-72
2021/09/04 07:00:18;;;;;;;13.47;8.27;;;;;;;17.45;55.37;95305.22;5044596;28;20442;-70
2021/09/04 07:02:45;;;;;;;11.13;8.07;;;;;;;17.62;54.19;95290.44;5053332;28;20530;-72
2021/09/04 07:05:12;;;;;;;10.67;8.43;;;;;;;17.81;53.50;95274.50;5052668;28;20430;-71
2021/09/04 07:07:39;;;;;;;12.17;7.90;;;;;;;17.87;51.05;95289.22;5051962;28;20457;-71
2021/09/04 07:10:06;;;;;;;11.97;8.30;;;;;;;17.87;52.64;95284.72;5044100;28;20475;-70
2021/09/04 07:12:35;;;;;;;12.50;8.63;;;;;;;17.70;53.71;95278.38;5031747;28;20535;-71
2021/09/04 07:15:02;;;;;;;13.43;8.23;;;;;;;18.00;53.47;95280.50;5045774;28;20440;-73
2021/09/04 07:17:29;;;;;;;12.53;8.90;;;;;;;18.11;52.73;95273.94;5034310;28;20495;-72
2021/09/04 07:19:55;;;;;;;8.80;7.90;;;;;;;18.09;52.54;95273.47;5049565;28;20442;-72
2021/09/04 07:22:22;;;;;;;11.53;7.83;;;;;;;18.10;51.84;95267.09;5052342;28;20439;-72
2021/09/04 07:24:49;;;;;;;13.33;8.13;;;;;;;18.33;51.54;95268.78;5036789;28;20203;-70
2021/09/04 07:27:16;;;;;;;10.07;7.63;;;;;;;18.33;51.76;95271.44;5031787;28;20530;-72
2021/09/04 07:29:43;;;;;;;10.50;8.13;;;;;;;18.48;51.18;95268.50;5046024;28;20196;-72
2021/09/04 07:32:10;;;;;;;8.77;7.33;;;;;;;18.66;51.39;95269.47;5031702;28;20887;-73
2021/09/04 07:34:37;;;;;;;12.00;7.77;;;;;;;18.20;52.24;95272.19;5044414;28;20202;-72
2021/09/04 07:37:04;;;;;;;9.80;7.50;;;;;;;18.38;53.13;95271.31;5037203;28;20481;-73
2021/09/04 07:39:31;;;;;;;9.77;7.23;;;;;;;18.81;51.31;95269.19;5052115;28;20200;-70
2021/09/04 07:41:58;;;;;;;11.37;7.13;;;;;;;18.95;51.47;95268.06;5051590;28;20320;-70
2021/09/04 07:44:25;;;;;;;10.20;7.37;;;;;;;19.18;49.67;95275.00;5051911;28;20199;-71
2021/09/04 07:46:52;;;;;;;11.33;7.13;;;;;;;19.34;48.85;95286.09;5037085;28;20255;-72
2021/09/04 07:49:18;;;;;;;9.63;7.53;;;;;;;19.23;48.36;95291.91;5051401;28;20435;-70
2021/09/04 07:51:45;;;;;;;8.53;7.03;;;;;;;18.78;49.92;95293.66;5051741;28;20451;-72
2021/09/04 07:54:12;;;;;;;13.93;7.07;;;;;;;18.62;48.00;95284.41;5033776;28;20208;-70
2021/09/04 07:56:39;;;;;;;9.77;7.03;;;;;;;18.83;48.99;95281.06;5041131;28;20467;-73
2021/09/04 07:59:06;;;;;;;8.93;6.93;;;;;;;19.10;48.83;95286.31;5037641;28;20475;-72
2021/09/04 08:01:34;;;;;;;8.20;7.30;;;;;;;19.12;49.93;95278.84;5051536;28;20537;-72
2021/09/04 08:04:02;;;;;;;13.47;6.63;;;;;;;19.32;50.30;95287.47;5050822;28;20283;-72
2021/09/04 08:06:29;;;;;;;8.30;6.67;;;;;;;19.46;49.12;95289.00;5037641;28;20199;-72
2021/09/04 08:08:55;;;;;;;11.60;6.77;;;;;;;19.74;47.81;95292.34;5051780;28;20189;-71
2021/09/04 08:11:22;;;;;;;9.87;6.77;;;;;;;19.74;46.25;95285.13;5051376;28;20193;-70
2021/09/04 08:13:49;;;;;;;8.10;6.40;;;;;;;19.76;46.73;95287.50;5051450;28;20204;-71
2021/09/04 08:16:17;;;;;;;8.63;6.47;;;;;;;19.58;45.09;95288.47;5049493;28;20216;-71
2021/09/04 08:18:44;;;;;;;8.33;6.63;;;;;;;19.33;45.37;95278.41;5039136;28;20228;-71
2021/09/04 08:21:11;;;;;;;7.77;6.30;;;;;;;19.32;46.46;95284.81;5050961;28;20192;-73
2021/09/04 08:23:38;;;;;;;9.63;6.80;;;;;;;19.84;47.37;95297.41;5050040;28;20276;-72
2021/09/04 08:26:05;;;;;;;14.43;7.00;;;;;;;20.03;47.35;95298.00;5050415;28;20207;-71
2021/09/04 08:28:32;;;;;;;11.13;7.57;;;;;;;20.31;46.28;95288.00;5048029;28;20239;-73
2021/09/04 08:30:58;;;;;;;11.50;7.30;;;;;;;20.37;45.42;95292.09;5040472;28;20188;-71
2021/09/04 08:33:26;;;;;;;12.67;6.93;;;;;;;20.50;45.41;95281.34;5050495;28;20670;-72
2021/09/04 08:35:53;;;;;;;8.53;5.90;;;;;;;20.49;43.77;95284.31;5050446;28;20180;-72
2021/09/04 08:38:19;;;;;;;11.07;5.97;;;;;;;20.61;43.55;95282.63;5051028;28;20210;-73
2021/09/04 08:40:49;;;;;;;9.47;6.17;;;;;;;20.85;45.04;95282.25;5050310;28;20566;-72
2021/09/04 08:43:16;;;;;;;9.03;5.93;;;;;;;21.01;44.11;95276.19;5050513;28;20236;-71
2021/09/04 08:45:44;;;;;;;9.20;5.70;;;;;;;21.14;45.15;95291.25;5049887;28;20683;-72
2021/09/04 08:48:12;;;;;;;9.53;6.53;;;;;;;21.33;43.34;95288.28;5051031;28;20192;-73
2021/09/04 08:50:40;;;;;;;8.20;6.07;;;;;;;21.53;41.99;95285.00;5033233;28;20209;-71
2021/09/04 08:53:07;;;;;;;9.00;6.27;;;;;;;21.70;42.59;95276.19;5039429;28;20193;-71
2021/09/04 08:55:34;;;;;;;10.47;6.93;;;;;;;21.80;42.28;95270.59;5035856;28;20205;-72
2021/09/04 08:58:01;;;;;;;9.63;6.60;;;;;;;21.81;42.16;95274.81;5043690;28;20201;-73
2021/09/04 09:00:34;;;;;;;9.83;6.03;;;;;;;22.11;41.28;95276.47;5043023;28;20258;-71
2021/09/04 09:03:02;;;;;;;10.53;5.57;;;;;;;21.87;39.86;95252.19;5036688;28;20201;-70
2021/09/04 09:05:42;;;;;;;8.87;5.33;;;;;;;22.16;41.77;95257.63;5049626;28;20204;-71
2021/09/04 09:08:41;;;;;;;15.33;6.00;;;;;;;22.53;41.12;95264.88;5036760;28;20654;-72
2021/09/04 09:11:09;;;;;;;10.70;6.60;;;;;;;22.51;40.56;95258.28;5049267;28;20299;-71
2021/09/04 09:13:56;;;;;;;8.53;6.73;;;;;;;22.71;40.58;95266.38;5041304;28;20300;-74
2021/09/04 09:16:24;;;;;;;7.13;5.53;;;;;;;22.66;38.46;95261.19;5043345;28;20209;-72
2021/09/04 09:19:19;;;;;;;6.80;5.00;;;;;;;22.67;40.30;95267.34;5038447;28;20666;-74
2021/09/04 09:21:47;;;;;;;5.90;5.30;;;;;;;22.93;39.85;95266.09;5048608;28;20201;-71
2021/09/04 09:24:19;;;;;;;8.53;5.57;;;;;;;22.91;39.02;95262.97;5049810;28;20262;-74
2021/09/04 09:27:03;;;;;;;8.37;5.70;;;;;;;22.96;38.73;95252.09;5046167;28;20217;-72
2021/09/04 09:29:32;;;;;;;11.40;5.80;;;;;;;23.17;38.27;95248.66;5041899;28;20247;-71
2021/09/04 09:32:06;;;;;;;9.00;5.93;;;;;;;23.20;38.67;95240.75;5043966;28;20673;-72
2021/09/04 09:34:41;;;;;;;6.53;5.57;;;;;;;23.34;36.99;95216.47;5041552;28;20205;-72
2021/09/04 09:37:11;;;;;;;6.60;5.10;;;;;;;23.43;36.30;95235.91;5048922;28;20716;-71
2021/09/04 09:39:44;;;;;;;9.87;5.57;;;;;;;23.27;35.96;95233.00;5054294;28;20204;-70
2021/09/04 09:42:13;;;;;;;10.23;5.40;;;;;;;23.62;37.96;95217.47;5050825;28;20231;-73
2021/09/04 09:44:40;;;;;;;7.13;4.87;;;;;;;23.81;37.39;95220.44;5041088;28;20248;-71
2021/09/04 09:47:12;;;;;;;5.57;4.93;;;;;;;23.78;35.55;95229.09;5032071;28;20579;-72
2021/09/04 09:49:42;;;;;;;8.80;5.50;;;;;;;23.71;36.25;95216.28;5041025;28;20185;-72
2021/09/04 09:52:14;;;;;;;5.30;4.80;;;;;;;23.76;36.43;95197.31;5030654;28;20188;-74
2021/09/04 09:54:42;;;;;;;8.57;5.53;;;;;;;24.35;35.71;95195.09;5050157;28;20220;-72
2021/09/04 09:57:10;;;;;;;14.80;5.30;;;;;;;24.62;35.36;95194.44;5049292;28;20224;-72
2021/09/04 09:59:38;;;;;;;7.40;5.17;;;;;;;24.83;35.23;95192.44;5035974;28;20617;-71
2021/09/04 10:02:08;;;;;;;7.40;5.53;;;;;;;24.35;34.87;95197.78;5049215;28;20296;-72
2021/09/04 10:04:38;;;;;;;9.20;5.50;;;;;;;24.41;35.21;95193.78;5048917;28;20670;-71
2021/09/04 10:07:08;;;;;;;8.33;5.87;;;;;;;24.67;36.78;95193.44;5037576;28;20432;-71
2021/09/04 10:09:37;;;;;;;6.77;4.93;;;;;;;24.91;33.96;95188.84;5033844;28;20191;-73
2021/09/04 10:12:05;;;;;;;6.17;5.07;;;;;;;24.99;34.34;95179.88;5048946;28;20208;-71
2021/09/04 10:14:34;;;;;;;6.33;5.10;;;;;;;25.10;34.88;95190.91;5035208;28;20694;-72
2021/09/04 10:17:04;;;;;;;9.43;5.60;;;;;;;25.19;34.06;95172.00;5041923;28;20219;-71
2021/09/04 10:19:32;;;;;;;7.33;5.30;;;;;;;25.16;34.28;95186.09;5043189;28;20670;-72
2021/09/04 10:22:03;;;;;;;9.80;5.17;;;;;;;25.04;33.73;95179.66;5034855;28;20675;-72
2021/09/04 10:24:42;;;;;;;8.17;5.53;;;;;;;25.31;33.32;95174.66;5049350;28;20197;-72
2021/09/04 10:27:12;;;;;;;8.77;5.50;;;;;;;25.54;32.77;95171.13;5035553;28;20597;-71
2021/09/04 10:29:44;;;;;;;7.67;5.03;;;;;;;25.40;33.41;95173.41;5049618;28;20200;-72
2021/09/04 10:32:16;;;;;;;7.23;5.40;;;;;;;25.43;33.89;95167.38;5043071;28;20551;-72
2021/09/04 10:34:44;;;;;;;7.60;5.27;;;;;;;25.59;32.46;95165.50;5042921;28;20226;-76
2021/09/04 10:37:18;;;;;;;7.47;5.40;;;;;;;25.72;33.52;95160.84;5049160;28;20224;-74
2021/09/04 10:39:59;;;;;;;7.57;5.43;;;;;;;25.73;31.87;95132.88;5037852;28;20193;-72
2021/09/04 10:42:29;;;;;;;6.47;5.20;;;;;;;25.46;30.81;95155.94;5028835;28;20747;-72
2021/09/04 10:45:10;;;;;;;8.80;5.07;;;;;;;25.85;31.79;95147.00;5042396;28;20209;-71
2021/09/04 10:47:55;;;;;;;7.67;4.80;;;;;;;26.04;30.84;95149.03;5049996;28;20192;-70
2021/09/04 10:50:24;;;;;;;5.90;4.60;;;;;;;26.03;31.25;95147.44;5038932;28;20263;-72
2021/09/04 10:52:57;;;;;;;8.23;5.60;;;;;;;25.99;31.37;95138.50;5039480;28;20188;-71
2021/09/04 10:55:26;;;;;;;7.90;5.30;;;;;;;26.17;31.24;95133.63;5052071;28;20670;-70
2021/09/04 10:58:03;;;;;;;11.33;5.60;;;;;;;25.93;31.94;95137.19;5052563;28;20234;-73
2021/09/04 11:00:39;;;;;;;9.53;5.60;;;;;;;25.94;31.34;95114.63;5052391;28;20204;-72
2021/09/04 11:03:11;;;;;;;7.03;5.53;;;;;;;26.00;30.69;95148.91;5032927;28;20189;-72
2021/09/04 11:05:41;;;;;;;8.23;5.40;;;;;;;26.06;29.92;95157.50;5032225;28;20205;-71
2021/09/04 11:08:32;;;;;;;12.17;4.90;;;;;;;26.24;31.55;95137.22;5039058;28;21017;-70
2021/09/04 11:11:33;;;;;;;5.70;4.97;;;;;;;26.20;31.59;95141.75;5048927;28;20200;-70
2021/09/04 11:14:16;;;;;;;5.97;4.90;;;;;;;26.14;30.23;95136.97;5039266;28;20667;-73
2021/09/04 11:16:47;;;;;;;5.80;5.03;;;;;;;26.20;31.13;95147.13;5034901;28;20299;-71
2021/09/04 11:19:28;;;;;;;7.27;4.73;;;;;;;26.10;31.01;95136.09;5044053;28;20279;-71
2021/09/04 11:22:12;;;;;;;5.90;5.30;;;;;;;26.12;30.48;95140.03;5051617;28;20223;-70
2021/09/04 11:24:42;;;;;;;10.70;5.03;;;;;;;26.14;31.65;95128.94;5038961;28;20205;-74
2021/09/04 11:27:20;;;;;;;6.03;4.90;;;;;;;26.42;30.17;95127.66;5038521;28;20188;-70
2021/09/04 11:29:51;;;;;;;9.10;5.23;;;;;;;26.22;31.29;95134.13;5051888;28;20200;-72
2021/09/04 11:32:20;;;;;;;8.07;5.30;;;;;;;26.42;30.63;95133.03;5045282;28;20197;-71
2021/09/04 11:34:50;;;;;;;8.67;5.30;;;;;;;26.61;30.14;95125.03;5045183;28;20192;-72
2021/09/04 11:37:25;;;;;;;6.73;5.10;;;;;;;26.63;30.28;95144.28;5051331;28;20220;-73
2021/09/04 11:39:55;;;;;;;5.43;4.50;;;;;;;26.75;30.31;95136.13;5052675;28;20267;-70